Time;durP1;ratioP1;P1;durP2;ratioP2;P2;SDS_P1;SDS_P2;PMS_P1;PMS_P2;Temp;Humidity;BMP_temperature;BMP_pressure;BME280_temperature;BME280_humidity;BME280_pressure;Samples;Min_cycle;Max_cycle;Signal;HPM_P1;HPM_P2
2021/12/09 00:01:07;;;;;;;;;;;;;;;7.71;56.23;99168.88;4952385;28;6816;-75
2021/12/09 00:03:39;;;;;;;;;;;;;;;7.70;55.48;99174.78;4953150;28;6816;-75
2021/12/09 00:06:07;;;;;;;;;;;;;;;7.69;56.04;99175.59;4969338;28;7079;-75
2021/12/09 00:08:36;;;;;;;;;;;;;;;7.68;56.33;99176.41;4967653;28;6820;-75
2021/12/09 00:11:07;;;;;;;;;;;;;;;7.67;55.57;99179.78;4970619;28;6820;-75
2021/12/09 00:13:33;;;;;;;;;;;;;;;7.66;55.75;99178.03;4969636;28;6812;-75
2021/12/09 00:15:58;;;;;;;;;;;;;;;7.65;56.13;99179.72;4967743;28;6954;-75
2021/12/09 00:18:25;;;;;;;;;;;;;;;7.62;55.96;99172.78;4968849;28;6938;-75
2021/12/09 00:20:52;;;;;;;;;;;;;;;7.63;55.79;99171.13;4969725;28;6800;-75
2021/12/09 00:23:18;;;;;;;;;;;;;;;7.62;55.84;99166.84;4989013;28;6884;-75
2021/12/09 00:25:44;;;;;;;;;;;;;;;7.63;56.56;99177.13;4967964;28;6895;-75
2021/12/09 00:28:10;;;;;;;;;;;;;;;7.65;56.13;99174.59;4968958;28;7116;-75
2021/12/09 00:30:36;;;;;;;;;;;;;;;7.68;57.02;99166.22;4972073;28;7141;-75
2021/12/09 00:33:06;;;;;;;;;;;;;;;7.70;56.09;99172.25;4951688;28;6960;-75
2021/12/09 00:35:42;;;;;;;;;;;;;;;7.70;56.56;99170.56;4967954;28;7162;-75
2021/12/09 00:38:12;;;;;;;;;;;;;;;7.72;56.80;99171.50;4951335;28;7082;-75
2021/12/09 00:40:38;;;;;;;;;;;;;;;7.73;55.64;99174.94;4968207;28;7896;-75
2021/12/09 00:43:04;;;;;;;;;;;;;;;7.75;56.43;99181.81;4952954;28;7135;-75
2021/12/09 00:45:30;;;;;;;;;;;;;;;7.75;56.60;99173.31;4970143;28;7188;-75
2021/12/09 00:47:56;;;;;;;;;;;;;;;7.75;55.96;99173.31;4970259;28;7188;-75
2021/12/09 00:50:23;;;;;;;;;;;;;;;7.76;56.24;99175.03;4985730;28;7236;-75
2021/12/09 00:52:49;;;;;;;;;;;;;;;7.75;55.71;99178.41;4955737;28;6953;-75
2021/12/09 00:55:17;;;;;;;;;;;;;;;7.76;55.90;99187.81;4968263;28;6804;-75
2021/12/09 00:57:44;;;;;;;;;;;;;;;7.76;56.40;99182.69;4972123;28;7916;-75
2021/12/09 01:00:15;;;;;;;;;;;;;;;7.76;55.79;99195.47;4974429;28;7219;-75
2021/12/09 01:02:41;;;;;;;;;;;;;;;7.75;55.55;99196.25;4981881;28;6887;-75
2021/12/09 01:05:10;;;;;;;;;;;;;;;7.73;56.24;99196.19;4972014;28;7991;-75
2021/12/09 01:07:38;;;;;;;;;;;;;;;7.72;55.94;99191.03;4972809;28;7905;-75
2021/12/09 01:10:09;;;;;;;;;;;;;;;7.70;55.61;99211.38;4974953;28;7434;-75
2021/12/09 01:12:34;;;;;;;;;;;;;;;7.68;55.79;99207.03;4973579;28;7273;-75
2021/12/09 01:15:00;;;;;;;;;;;;;;;7.67;56.32;99206.13;4969219;28;7036;-75
2021/12/09 01:17:26;;;;;;;;;;;;;;;7.63;56.38;99207.72;4972237;28;6984;-75
2021/12/09 01:19:53;;;;;;;;;;;;;;;7.60;56.35;99210.13;4975398;28;7028;-75
2021/12/09 01:22:29;;;;;;;;;;;;;;;7.59;55.76;99221.13;4974603;28;6823;-74
2021/12/09 01:24:55;;;;;;;;;;;;;;;7.55;55.72;99214.19;4959702;28;6824;-74
2021/12/09 01:27:20;;;;;;;;;;;;;;;7.54;56.05;99215.00;4975184;28;7884;-75
2021/12/09 01:29:52;;;;;;;;;;;;;;;7.50;55.85;99208.00;4953603;28;7202;-75
2021/12/09 01:32:25;;;;;;;;;;;;;;;7.47;55.97;99208.75;4972313;28;6827;-75
2021/12/09 01:34:51;;;;;;;;;;;;;;;7.46;56.74;99212.09;4970938;28;6823;-75
2021/12/09 01:37:17;;;;;;;;;;;;;;;7.44;56.65;99212.88;4975982;28;8455;-75
2021/12/09 01:39:43;;;;;;;;;;;;;;;7.41;56.12;99210.19;4970586;28;6945;-75
2021/12/09 01:42:09;;;;;;;;;;;;;;;7.40;56.92;99206.78;4973676;28;7177;-75
2021/12/09 01:44:35;;;;;;;;;;;;;;;7.39;56.23;99210.13;4975612;28;6792;-75
2021/12/09 01:47:00;;;;;;;;;;;;;;;7.36;56.58;99210.88;4955318;28;6884;-75
2021/12/09 01:49:26;;;;;;;;;;;;;;;7.38;56.31;99215.16;4990527;28;6808;-75
2021/12/09 01:51:54;;;;;;;;;;;;;;;7.36;56.68;99215.97;4972807;28;6819;-75
2021/12/09 01:54:24;;;;;;;;;;;;;;;7.38;56.66;99215.16;4973212;28;7902;-75
2021/12/09 01:56:50;;;;;;;;;;;;;;;7.36;56.60;99221.06;4971995;28;6816;-75
2021/12/09 01:59:17;;;;;;;;;;;;;;;7.35;56.81;99221.88;4959624;28;7044;-75
2021/12/09 02:01:43;;;;;;;;;;;;;;;7.33;56.39;99220.91;4987630;28;6808;-75
2021/12/09 02:04:11;;;;;;;;;;;;;;;7.31;56.10;99220.00;4970631;28;6956;-75
2021/12/09 02:06:41;;;;;;;;;;;;;;;7.30;56.71;99222.50;4972369;28;7035;-75
2021/12/09 02:09:14;;;;;;;;;;;;;;;7.28;56.50;99217.31;4962340;28;7273;-75
2021/12/09 02:11:41;;;;;;;;;;;;;;;7.28;57.14;99216.44;4956374;28;6819;-75
2021/12/09 02:14:07;;;;;;;;;;;;;;;7.28;57.24;99214.78;4977057;28;7166;-75
2021/12/09 02:16:34;;;;;;;;;;;;;;;7.28;56.85;99213.88;4972881;28;7300;-75
2021/12/09 02:19:01;;;;;;;;;;;;;;;7.25;56.91;99214.66;4995292;28;7239;-75
2021/12/09 02:21:32;;;;;;;;;;;;;;;7.20;56.60;99206.81;4971682;28;6827;-75
2021/12/09 02:24:05;;;;;;;;;;;;;;;7.15;56.96;99207.44;4975091;28;6879;-75
2021/12/09 02:26:35;;;;;;;;;;;;;;;7.11;56.72;99203.88;4974114;28;6824;-75
2021/12/09 02:29:06;;;;;;;;;;;;;;;7.07;56.90;99205.41;4979760;28;6812;-75
2021/12/09 02:31:33;;;;;;;;;;;;;;;7.04;56.77;99207.81;4964748;28;7214;-75
2021/12/09 02:34:00;;;;;;;;;;;;;;;7.03;56.74;99200.13;4955644;28;7515;-75
2021/12/09 02:36:29;;;;;;;;;;;;;;;7.04;57.05;99205.25;4974038;28;6815;-75
2021/12/09 02:38:56;;;;;;;;;;;;;;;7.03;56.53;99198.44;4975428;28;6823;-75
2021/12/09 02:41:25;;;;;;;;;;;;;;;7.03;56.57;99200.13;4973663;28;7953;-75
2021/12/09 02:43:57;;;;;;;;;;;;;;;7.02;56.94;99196.69;4973860;28;6823;-75
2021/12/09 02:46:26;;;;;;;;;;;;;;;7.01;57.33;99200.03;4971362;28;7189;-75
2021/12/09 02:48:53;;;;;;;;;;;;;;;7.00;57.52;99203.41;4973246;28;6964;-75
2021/12/09 02:51:19;;;;;;;;;;;;;;;7.00;56.77;99216.13;4972361;28;6827;-75
2021/12/09 02:53:45;;;;;;;;;;;;;;;7.00;57.35;99213.59;4976556;28;7248;-75
2021/12/09 02:56:13;;;;;;;;;;;;;;;7.02;57.14;99218.75;4976742;28;7332;-75
2021/12/09 02:58:40;;;;;;;;;;;;;;;7.02;57.12;99211.97;4976543;28;6975;-75
2021/12/09 03:01:18;;;;;;;;;;;;;;;7.02;56.89;99219.63;4974502;28;7220;-75
2021/12/09 03:03:51;;;;;;;;;;;;;;;7.03;57.33;99220.50;4973672;28;6816;-75
2021/12/09 03:06:27;;;;;;;;;;;;;;;7.03;56.96;99210.31;4972727;28;6819;-75
2021/12/09 03:08:53;;;;;;;;;;;;;;;7.04;57.28;99210.34;4965988;28;7317;-74
2021/12/09 03:11:22;;;;;;;;;;;;;;;7.04;56.88;99212.91;4975455;28;6796;-75
2021/12/09 03:13:51;;;;;;;;;;;;;;;7.03;56.86;99206.06;4960547;28;6823;-75
2021/12/09 03:16:19;;;;;;;;;;;;;;;7.05;56.90;99209.59;4972649;28;6816;-75
2021/12/09 03:18:53;;;;;;;;;;;;;;;7.04;57.57;99205.25;4977277;28;6804;-75
2021/12/09 03:21:32;;;;;;;;;;;;;;;7.07;57.10;99204.53;4972299;28;7882;-75
2021/12/09 03:23:59;;;;;;;;;;;;;;;7.08;57.10;99204.59;4975769;28;6959;-75
2021/12/09 03:26:32;;;;;;;;;;;;;;;7.08;57.52;99207.16;4975973;28;6967;-74
2021/12/09 03:29:06;;;;;;;;;;;;;;;7.11;57.52;99213.19;4975479;28;7715;-74
2021/12/09 03:31:33;;;;;;;;;;;;;;;7.10;57.32;99214.88;4973462;28;7710;-74
2021/12/09 03:33:59;;;;;;;;;;;;;;;7.09;57.09;99218.19;4976181;28;6820;-74
2021/12/09 03:36:28;;;;;;;;;;;;;;;7.09;56.63;99215.66;4970718;28;6808;-74
2021/12/09 03:38:56;;;;;;;;;;;;;;;7.08;57.19;99214.81;4976609;28;6816;-74
2021/12/09 03:41:22;;;;;;;;;;;;;;;7.07;56.63;99224.91;4962707;28;7183;-75
2021/12/09 03:43:48;;;;;;;;;;;;;;;7.05;56.67;99217.22;4979568;28;6948;-75
2021/12/09 03:46:14;;;;;;;;;;;;;;;7.06;57.14;99218.06;4961766;28;6820;-75
2021/12/09 03:48:40;;;;;;;;;;;;;;;7.02;57.32;99214.53;4980715;28;7209;-75
2021/12/09 03:51:06;;;;;;;;;;;;;;;7.00;57.16;99215.25;4978781;28;7167;-75
2021/12/09 03:53:31;;;;;;;;;;;;;;;6.98;56.68;99222.84;4979780;28;6866;-75
2021/12/09 03:55:57;;;;;;;;;;;;;;;6.95;56.95;99222.69;4979742;28;6968;-75
2021/12/09 03:58:24;;;;;;;;;;;;;;;6.93;57.22;99219.22;4978385;28;7201;-75
2021/12/09 04:00:50;;;;;;;;;;;;;;;6.92;57.30;99223.47;4977166;28;6888;-75
2021/12/09 04:03:17;;;;;;;;;;;;;;;6.89;56.81;99218.22;4976704;28;7005;-75
2021/12/09 04:05:45;;;;;;;;;;;;;;;6.89;57.16;99212.25;4973359;28;7600;-75
2021/12/09 04:08:11;;;;;;;;;;;;;;;6.88;57.48;99213.91;4957988;28;7207;-75
2021/12/09 04:10:37;;;;;;;;;;;;;;;6.86;57.32;99210.44;4960081;28;6803;-75
2021/12/09 04:13:03;;;;;;;;;;;;;;;6.87;57.68;99213.88;4977356;28;7345;-75
2021/12/09 04:15:29;;;;;;;;;;;;;;;6.87;57.31;99221.50;4978823;28;6787;-75
2021/12/09 04:17:54;;;;;;;;;;;;;;;6.91;57.27;99223.38;4958461;28;6800;-75
2021/12/09 04:20:21;;;;;;;;;;;;;;;6.92;57.71;99232.75;4977257;28;7181;-75
2021/12/09 04:22:49;;;;;;;;;;;;;;;6.94;56.98;99241.34;4976641;28;7987;-75
2021/12/09 04:25:21;;;;;;;;;;;;;;;6.97;56.71;99238.06;4977198;28;6989;-75
2021/12/09 04:27:50;;;;;;;;;;;;;;;6.96;57.04;99239.75;4974174;28;7030;-75
2021/12/09 04:30:16;;;;;;;;;;;;;;;6.95;56.93;99251.59;4975884;28;7281;-75
2021/12/09 04:32:43;;;;;;;;;;;;;;;6.95;57.18;99249.06;4976190;28;7849;-75
2021/12/09 04:35:10;;;;;;;;;;;;;;;6.94;56.79;99241.34;4981235;28;6804;-75
2021/12/09 04:37:38;;;;;;;;;;;;;;;6.94;56.69;99243.88;4981560;28;6811;-75
2021/12/09 04:40:07;;;;;;;;;;;;;;;6.93;57.32;99248.13;4963811;28;8864;-75
2021/12/09 04:42:33;;;;;;;;;;;;;;;6.93;56.99;99254.88;4958397;28;6912;-76
2021/12/09 04:44:59;;;;;;;;;;;;;;;6.92;57.49;99253.13;4975159;28;7014;-75
2021/12/09 04:47:24;;;;;;;;;;;;;;;6.92;56.71;99253.13;4974321;28;7580;-75
2021/12/09 04:49:51;;;;;;;;;;;;;;;6.91;56.86;99257.38;4976839;28;9131;-75
2021/12/09 04:52:16;;;;;;;;;;;;;;;6.92;57.30;99259.13;4960816;28;7900;-75
2021/12/09 04:54:42;;;;;;;;;;;;;;;6.91;56.76;99254.84;4979086;28;6811;-75
2021/12/09 04:57:11;;;;;;;;;;;;;;;6.92;56.94;99259.13;4981039;28;7123;-75
2021/12/09 04:59:37;;;;;;;;;;;;;;;6.91;57.18;99256.50;4978836;28;6978;-75
2021/12/09 05:02:07;;;;;;;;;;;;;;;6.90;57.51;99264.94;4975568;28;6804;-75
2021/12/09 05:04:33;;;;;;;;;;;;;;;6.89;56.88;99261.50;4965569;28;7394;-75
2021/12/09 05:06:58;;;;;;;;;;;;;;;6.88;57.41;99257.22;4978424;28;7691;-75
2021/12/09 05:09:25;;;;;;;;;;;;;;;6.90;57.02;99262.41;4973972;28;7171;-76
2021/12/09 05:11:50;;;;;;;;;;;;;;;6.92;56.90;99255.69;4973335;28;7027;-75
2021/12/09 05:14:22;;;;;;;;;;;;;;;6.93;56.74;99271.06;4973914;28;6799;-75
2021/12/09 05:16:55;;;;;;;;;;;;;;;6.94;56.98;99257.50;4975415;28;6904;-75
2021/12/09 05:19:21;;;;;;;;;;;;;;;6.97;57.46;99266.09;4979341;28;6832;-75
2021/12/09 05:21:47;;;;;;;;;;;;;;;7.00;57.57;99277.28;4978986;28;6800;-75
2021/12/09 05:24:15;;;;;;;;;;;;;;;7.01;57.19;99289.22;4976339;28;7186;-75
2021/12/09 05:26:50;;;;;;;;;;;;;;;7.04;56.60;99278.28;4978685;28;6824;-75
2021/12/09 05:29:18;;;;;;;;;;;;;;;7.04;57.16;99279.16;4977295;28;7054;-75
2021/12/09 05:34:30;;;;;;;;;;;;;;;7.07;57.13;99278.41;4975162;28;7370;-75
2021/12/09 05:36:56;;;;;;;;;;;;;;;7.07;56.60;99286.94;4975429;28;6887;-75
2021/12/09 05:39:22;;;;;;;;;;;;;;;7.08;57.13;99291.25;4976184;28;6998;-75
2021/12/09 05:41:48;;;;;;;;;;;;;;;7.11;56.46;99292.16;4979871;28;6788;-75
2021/12/09 05:44:16;;;;;;;;;;;;;;;7.11;57.12;99290.50;4978078;28;8084;-75
2021/12/09 05:46:45;;;;;;;;;;;;;;;7.11;56.90;99299.81;4977009;28;6792;-75
2021/12/09 05:49:12;;;;;;;;;;;;;;;7.09;56.17;99297.19;4977802;28;7045;-75
2021/12/09 05:51:40;;;;;;;;;;;;;;;7.06;56.32;99297.94;4992944;28;7017;-75
2021/12/09 05:54:06;;;;;;;;;;;;;;;7.05;56.82;99308.06;4974474;28;7011;-76
2021/12/09 05:56:32;;;;;;;;;;;;;;;7.02;56.31;99310.47;4975638;28;6812;-75
2021/12/09 05:58:59;;;;;;;;;;;;;;;7.00;56.58;99309.53;4974812;28;7679;-75
2021/12/09 06:01:25;;;;;;;;;;;;;;;6.97;56.96;99311.94;4978933;28;6816;-75
2021/12/09 06:03:51;;;;;;;;;;;;;;;6.92;56.94;99315.16;4978221;28;6887;-75
2021/12/09 06:06:18;;;;;;;;;;;;;;;6.89;56.49;99319.25;4977461;28;7153;-75
2021/12/09 06:08:44;;;;;;;;;;;;;;;6.86;56.54;99317.41;4977160;28;6973;-75
2021/12/09 06:11:11;;;;;;;;;;;;;;;6.82;56.66;99325.75;4977093;28;6972;-75
2021/12/09 06:13:38;;;;;;;;;;;;;;;6.79;56.86;99328.13;4978882;28;6811;-75
2021/12/09 06:16:06;;;;;;;;;;;;;;;6.77;56.74;99339.91;4961576;28;6986;-75
2021/12/09 06:18:32;;;;;;;;;;;;;;;6.76;57.14;99343.28;4979514;28;7351;-75
2021/12/09 06:20:59;;;;;;;;;;;;;;;6.75;56.96;99337.28;4980232;28;6831;-75
2021/12/09 06:23:25;;;;;;;;;;;;;;;6.75;56.98;99342.38;4977664;28;6831;-75
2021/12/09 06:25:51;;;;;;;;;;;;;;;6.74;56.80;99337.25;4979853;28;6891;-75
2021/12/09 06:28:18;;;;;;;;;;;;;;;6.75;57.54;99332.19;4980035;28;6804;-76
2021/12/09 06:30:46;;;;;;;;;;;;;;;6.78;56.93;99334.91;4975983;28;7020;-75
2021/12/09 06:33:13;;;;;;;;;;;;;;;6.79;57.13;99334.09;4976305;28;6807;-75
2021/12/09 06:35:39;;;;;;;;;;;;;;;6.81;57.49;99332.50;4962016;28;7202;-75
2021/12/09 06:38:11;;;;;;;;;;;;;;;6.81;57.21;99331.66;4977596;28;7222;-75
2021/12/09 06:40:38;;;;;;;;;;;;;;;6.80;56.93;99325.66;4977618;28;7007;-75
2021/12/09 06:43:04;;;;;;;;;;;;;;;6.80;56.83;99330.75;4979558;28;6815;-75
2021/12/09 06:45:31;;;;;;;;;;;;;;;6.83;56.92;99331.69;4979780;28;7244;-75
2021/12/09 06:47:56;;;;;;;;;;;;;;;6.84;56.63;99343.63;4977833;28;7164;-75
2021/12/09 06:50:24;;;;;;;;;;;;;;;6.86;56.99;99342.03;4979943;28;7197;-75
2021/12/09 06:52:51;;;;;;;;;;;;;;;6.86;56.58;99345.44;4977677;28;6853;-75
2021/12/09 06:55:20;;;;;;;;;;;;;;;6.87;56.64;99346.31;4959019;28;8582;-75
2021/12/09 06:57:47;;;;;;;;;;;;;;;6.90;56.45;99346.47;4978132;28;6804;-75
2021/12/09 07:00:28;;;;;;;;;;;;;;;6.91;56.63;99360.94;4976899;28;6827;-75
2021/12/09 07:02:54;;;;;;;;;;;;;;;6.90;56.80;99356.66;4994742;28;7699;-75
2021/12/09 07:05:22;;;;;;;;;;;;;;;6.90;56.70;99364.28;4979099;28;6977;-75
2021/12/09 07:07:49;;;;;;;;;;;;;;;6.90;56.84;99354.09;4979907;28;6800;-75
2021/12/09 07:10:16;;;;;;;;;;;;;;;6.89;56.74;99360.84;4980043;28;6824;-75
2021/12/09 07:12:43;;;;;;;;;;;;;;;6.88;56.23;99361.66;4977132;28;6958;-75
2021/12/09 07:15:12;;;;;;;;;;;;;;;6.87;56.82;99351.44;4978346;28;6800;-75
2021/12/09 07:17:39;;;;;;;;;;;;;;;6.85;56.98;99358.09;4985088;28;7610;-75
2021/12/09 07:20:09;;;;;;;;;;;;;;;6.85;56.26;99358.09;4979424;28;7253;-75
2021/12/09 07:22:35;;;;;;;;;;;;;;;6.82;56.80;99358.84;4979601;28;7205;-75
2021/12/09 07:25:01;;;;;;;;;;;;;;;6.83;56.59;99357.16;4967453;28;7136;-75
2021/12/09 07:27:27;;;;;;;;;;;;;;;6.80;56.90;99352.78;4981689;28;6811;-74
2021/12/09 07:29:52;;;;;;;;;;;;;;;6.81;56.75;99359.66;4981109;28;6955;-74
2021/12/09 07:32:18;;;;;;;;;;;;;;;6.79;56.60;99357.03;4983278;28;6924;-74
2021/12/09 07:34:44;;;;;;;;;;;;;;;6.78;56.57;99357.84;4985351;28;6784;-74
2021/12/09 07:37:09;;;;;;;;;;;;;;;6.77;56.78;99363.72;4982634;28;6887;-74
2021/12/09 07:39:35;;;;;;;;;;;;;;;6.76;56.94;99356.91;4983810;28;6882;-74
2021/12/09 07:42:03;;;;;;;;;;;;;;;6.75;56.99;99367.84;4985147;28;6808;-74
2021/12/09 07:44:31;;;;;;;;;;;;;;;6.73;56.93;99369.47;4960229;28;6827;-75
2021/12/09 07:46:59;;;;;;;;;;;;;;;6.71;56.85;99368.53;4974831;28;7052;-75
2021/12/09 07:49:26;;;;;;;;;;;;;;;6.69;56.88;99359.06;4976522;28;7195;-75
2021/12/09 07:51:53;;;;;;;;;;;;;;;6.66;56.88;99359.78;4974842;28;7184;-75
2021/12/09 07:54:20;;;;;;;;;;;;;;;6.64;57.16;99363.94;4975935;28;7221;-75
2021/12/09 07:56:46;;;;;;;;;;;;;;;6.63;56.81;99358.00;4962041;28;6996;-75
2021/12/09 07:59:13;;;;;;;;;;;;;;;6.62;57.54;99360.47;4978395;28;7287;-75
2021/12/09 08:01:39;;;;;;;;;;;;;;;6.62;57.44;99356.25;4959893;28;7503;-75
2021/12/09 08:04:05;;;;;;;;;;;;;;;6.63;57.82;99352.00;4975809;28;7134;-75
2021/12/09 08:06:31;;;;;;;;;;;;;;;6.64;57.37;99348.66;4994926;28;6783;-75
2021/12/09 08:08:58;;;;;;;;;;;;;;;6.66;57.26;99352.16;4974114;28;6832;-75
2021/12/09 08:11:23;;;;;;;;;;;;;;;6.69;57.58;99351.44;4975548;28;6827;-75
2021/12/09 08:13:49;;;;;;;;;;;;;;;6.71;57.33;99353.25;4958758;28;7304;-75
2021/12/09 08:16:16;;;;;;;;;;;;;;;6.74;57.83;99355.94;4975065;28;6973;-75
2021/12/09 08:18:53;;;;;;;;;;;;;;;6.78;57.49;99355.28;4942296;28;7049;-75
2021/12/09 08:21:22;;;;;;;;;;;;;;;6.80;57.35;99356.22;4976947;28;6828;-74
2021/12/09 08:23:48;;;;;;;;;;;;;;;6.86;57.99;99368.38;4964468;28;7206;-74
2021/12/09 08:26:13;;;;;;;;;;;;;;;6.90;57.85;99361.75;4972384;28;7268;-75
2021/12/09 08:28:39;;;;;;;;;;;;;;;6.95;58.00;99363.69;4972822;28;6982;-75
2021/12/09 08:31:05;;;;;;;;;;;;;;;7.02;57.60;99369.09;4973197;28;6799;-75
2021/12/09 08:33:30;;;;;;;;;;;;;;;7.08;57.53;99372.78;4972067;28;6878;-74
2021/12/09 08:35:56;;;;;;;;;;;;;;;7.19;57.78;99369.84;4974095;28;6879;-75
2021/12/09 08:38:24;;;;;;;;;;;;;;;7.27;58.07;99383.81;4970371;28;6863;-75
2021/12/09 08:40:53;;;;;;;;;;;;;;;7.34;58.03;99377.31;4974711;28;7031;-75
2021/12/09 08:43:20;;;;;;;;;;;;;;;7.42;57.07;99372.53;4955632;28;7208;-74
2021/12/09 08:45:49;;;;;;;;;;;;;;;7.49;57.06;99375.44;4977639;28;7115;-74
2021/12/09 08:48:16;;;;;;;;;;;;;;;7.57;56.92;99383.41;4976757;28;6820;-74
2021/12/09 08:50:44;;;;;;;;;;;;;;;7.65;56.76;99376.09;4973368;28;6799;-74
2021/12/09 08:53:15;;;;;;;;;;;;;;;7.77;57.38;99369.00;4971029;28;7179;-74
2021/12/09 08:55:42;;;;;;;;;;;;;;;7.86;57.58;99375.25;4972091;28;7213;-74
2021/12/09 08:58:10;;;;;;;;;;;;;;;7.90;56.29;99377.16;4971657;28;6819;-75
2021/12/09 09:00:37;;;;;;;;;;;;;;;7.91;56.22;99364.44;4975221;28;7154;-75
2021/12/09 09:03:04;;;;;;;;;;;;;;;7.95;56.06;99367.13;4971964;28;6835;-74
2021/12/09 09:05:32;;;;;;;;;;;;;;;7.96;55.96;99372.28;4971800;28;6831;-75
2021/12/09 09:08:00;;;;;;;;;;;;;;;7.99;56.18;99374.97;4974487;28;6831;-75
2021/12/09 09:10:28;;;;;;;;;;;;;;;8.02;56.34;99372.56;4971534;28;6887;-75
2021/12/09 09:12:55;;;;;;;;;;;;;;;8.07;56.25;99375.28;4973323;28;7436;-75
2021/12/09 09:15:24;;;;;;;;;;;;;;;8.10;56.73;99375.41;4981673;28;7141;-75
2021/12/09 09:17:51;;;;;;;;;;;;;;;8.13;56.40;99375.56;4969458;28;6899;-75
2021/12/09 09:20:22;;;;;;;;;;;;;;;8.18;56.51;99384.25;4979763;28;7207;-74
2021/12/09 09:22:48;;;;;;;;;;;;;;;8.25;56.13;99377.72;4977586;28;7234;-74
2021/12/09 09:25:20;;;;;;;;;;;;;;;8.31;56.13;99392.44;4959766;28;6800;-74
2021/12/09 09:27:48;;;;;;;;;;;;;;;8.40;56.81;99392.81;4975133;28;6828;-75
2021/12/09 09:30:19;;;;;;;;;;;;;;;8.48;55.52;99393.13;4976603;28;7294;-75
2021/12/09 09:32:49;;;;;;;;;;;;;;;8.59;55.53;99399.56;4973322;28;6816;-75
2021/12/09 09:35:18;;;;;;;;;;;;;;;8.69;55.61;99393.16;4978243;28;6891;-75
2021/12/09 09:37:44;;;;;;;;;;;;;;;8.79;55.93;99399.47;4980260;28;6900;-75
2021/12/09 09:40:15;;;;;;;;;;;;;;;8.91;54.96;99395.66;4982732;28;6811;-76
2021/12/09 09:45:14;;;;;;;;;;;;;;;9.14;54.17;99405.06;4976777;28;7267;-74
2021/12/09 09:47:40;;;;;;;;;;;;;;;9.26;55.00;99401.22;4982177;28;8932;-74
2021/12/09 09:50:10;;;;;;;;;;;;;;;9.37;54.64;99409.31;4979974;28;6974;-75
2021/12/09 09:52:36;;;;;;;;;;;;;;;9.42;53.20;99401.00;4975096;28;7197;-75
2021/12/09 09:55:08;;;;;;;;;;;;;;;9.47;54.32;99401.16;4977969;28;7177;-75
2021/12/09 09:57:34;;;;;;;;;;;;;;;9.56;53.46;99396.38;4994588;28;7254;-75
2021/12/09 10:00:00;;;;;;;;;;;;;;;9.63;53.62;99392.34;4979417;28;6892;-75
2021/12/09 10:02:26;;;;;;;;;;;;;;;9.68;53.13;99405.31;4962076;28;6944;-75
2021/12/09 10:05:01;;;;;;;;;;;;;;;9.71;52.53;99396.06;4978207;28;6776;-75
2021/12/09 10:07:27;;;;;;;;;;;;;;;9.73;52.59;99398.66;4977554;28;6883;-75
2021/12/09 10:09:54;;;;;;;;;;;;;;;9.75;52.04;99393.59;4975406;28;6819;-75
2021/12/09 10:12:21;;;;;;;;;;;;;;;9.77;52.13;99387.72;4979235;28;8064;-75
2021/12/09 10:14:51;;;;;;;;;;;;;;;9.80;52.65;99389.47;4964517;28;8425;-75
2021/12/09 10:17:22;;;;;;;;;;;;;;;9.81;52.83;99391.25;4980259;28;6812;-75
2021/12/09 10:19:58;;;;;;;;;;;;;;;9.82;52.18;99388.72;4979374;28;7006;-75
2021/12/09 10:22:30;;;;;;;;;;;;;;;9.83;52.21;99385.34;4978986;28;6839;-75
2021/12/09 10:24:58;;;;;;;;;;;;;;;9.83;51.59;99376.81;4978149;28;6930;-75
2021/12/09 10:27:33;;;;;;;;;;;;;;;9.91;51.88;99384.75;4974123;28;6816;-75
2021/12/09 10:30:08;;;;;;;;;;;;;;;10.06;52.42;99371.59;4976639;28;7410;-74
2021/12/09 10:32:35;;;;;;;;;;;;;;;10.19;51.58;99362.63;4982496;28;8327;-74
2021/12/09 10:35:15;;;;;;;;;;;;;;;10.32;50.91;99363.91;4981875;28;7848;-74
2021/12/09 10:37:45;;;;;;;;;;;;;;;10.34;50.70;99355.47;4980630;28;7288;-75
2021/12/09 10:40:18;;;;;;;;;;;;;;;10.31;50.07;99362.19;4980000;28;6895;-75
2021/12/09 10:42:54;;;;;;;;;;;;;;;10.25;50.70;99355.16;4980240;28;6820;-75
2021/12/09 10:45:37;;;;;;;;;;;;;;;10.19;49.85;99360.06;4981416;28;7112;-75
2021/12/09 10:50:53;;;;;;;;;;;;;;;10.09;50.90;99372.56;4979908;28;6902;-75
2021/12/09 10:56:09;;;;;;;;;;;;;;;10.05;50.59;99365.63;4980734;28;6868;-75
2021/12/09 10:58:40;;;;;;;;;;;;;;;10.04;51.09;99368.13;4983296;28;6985;-75
2021/12/09 11:01:15;;;;;;;;;;;;;;;10.04;51.35;99366.41;4979604;28;7256;-75
2021/12/09 11:03:50;;;;;;;;;;;;;;;10.03;50.48;99359.56;4982222;28;7206;-75
2021/12/09 11:06:28;;;;;;;;;;;;;;;10.01;50.82;99350.97;4982845;28;6816;-75
2021/12/09 11:08:57;;;;;;;;;;;;;;;9.98;51.15;99344.03;4981589;28;6820;-75
2021/12/09 11:11:34;;;;;;;;;;;;;;;9.99;50.90;99339.81;4980856;28;6815;-75
2021/12/09 11:14:02;;;;;;;;;;;;;;;9.99;50.67;99339.81;4981740;28;6828;-75
2021/12/09 11:16:42;;;;;;;;;;;;;;;10.00;51.37;99339.00;4998019;28;6800;-75
2021/12/09 11:19:12;;;;;;;;;;;;;;;10.02;51.33;99344.16;4980802;28;6815;-75
2021/12/09 11:21:53;;;;;;;;;;;;;;;10.04;51.60;99338.25;4979880;28;6996;-75
2021/12/09 11:24:21;;;;;;;;;;;;;;;10.01;51.66;99338.16;4980697;28;6896;-75
2021/12/09 11:26:57;;;;;;;;;;;;;;;9.99;51.64;99338.13;4979601;28;6979;-75
2021/12/09 11:29:42;;;;;;;;;;;;;;;9.98;50.89;99340.63;4981612;28;6828;-75
2021/12/09 11:40:42;;;;;;;;;;;;;;;9.95;51.21;99333.72;4977039;28;7246;-74
2021/12/09 11:43:12;;;;;;;;;;;;;;;9.91;50.50;99336.13;4979523;28;6831;-75
2021/12/09 11:45:44;;;;;;;;;;;;;;;9.88;50.64;99329.19;4959605;28;7873;-75
2021/12/09 11:48:13;;;;;;;;;;;;;;;9.87;51.68;99332.59;4979307;28;6812;-75
2021/12/09 11:50:45;;;;;;;;;;;;;;;9.84;51.03;99335.06;4962615;28;6812;-75
2021/12/09 11:53:17;;;;;;;;;;;;;;;9.78;51.70;99335.72;4975653;28;7852;-75
2021/12/09 11:55:58;;;;;;;;;;;;;;;9.73;52.08;99335.56;4961588;28;8028;-75
2021/12/09 11:58:28;;;;;;;;;;;;;;;9.66;51.71;99345.53;4972493;28;7350;-74
2021/12/09 12:07:43;;;;;;;;;;;;;;;9.41;52.45;99342.09;4974883;28;6978;-74
2021/12/09 12:13:05;;;;;;;;;;;;;;;9.22;52.93;99338.88;4976704;28;7101;-74
2021/12/09 12:15:49;;;;;;;;;;;;;;;9.20;52.59;99329.41;4978551;28;7192;-75
2021/12/09 12:24:33;;;;;;;;;;;;;;;9.19;53.09;99326.00;4975978;28;8322;-74
2021/12/09 12:27:14;;;;;;;;;;;;;;;9.19;53.41;99327.66;4965369;28;7017;-74
2021/12/09 12:38:17;;;;;;;;;;;;;;;9.11;53.06;99327.41;4973990;28;7598;-75
2021/12/09 12:40:56;;;;;;;;;;;;;;;9.05;53.73;99335.72;4977408;28;7321;-75
2021/12/09 12:43:36;;;;;;;;;;;;;;;9.01;53.99;99331.28;4973713;28;6815;-75
2021/12/09 12:48:55;;;;;;;;;;;;;;;8.99;53.98;99335.47;4978916;28;6804;-75
2021/12/09 12:54:25;;;;;;;;;;;;;;;8.96;53.68;99322.59;4977310;28;6867;-75
2021/12/09 12:57:00;;;;;;;;;;;;;;;8.93;53.11;99325.00;4982186;28;6812;-75
2021/12/09 12:59:40;;;;;;;;;;;;;;;8.92;54.53;99316.50;4989001;28;6811;-75
2021/12/09 13:16:11;;;;;;;;;;;;;;;9.19;54.61;99308.09;4979826;28;7154;-74
2021/12/09 13:19:14;;;;;;;;;;;;;;;9.22;54.67;99310.75;4983930;28;7029;-74
2021/12/09 13:21:57;;;;;;;;;;;;;;;9.26;54.75;99314.31;4985272;28;7310;-74
2021/12/09 13:24:40;;;;;;;;;;;;;;;9.31;53.95;99318.75;4982745;28;7222;-74
2021/12/09 13:27:42;;;;;;;;;;;;;;;9.38;54.06;99313.88;4987659;28;6846;-74
2021/12/09 13:38:33;;;;;;;;;;;;;;;9.50;54.01;99304.06;4978775;28;6823;-74
2021/12/09 13:46:53;;;;;;;;;;;;;;;9.54;54.11;99305.91;4983283;28;6889;-74
2021/12/09 13:49:24;;;;;;;;;;;;;;;9.53;53.08;99304.16;4982512;28;7000;-74
2021/12/09 13:54:28;;;;;;;;;;;;;;;9.49;54.19;99304.00;4980686;28;7049;-74
2021/12/09 13:57:04;;;;;;;;;;;;;;;9.46;54.25;99312.44;4981757;28;6823;-74
2021/12/09 13:59:34;;;;;;;;;;;;;;;9.44;54.17;99314.06;4984614;28;7153;-74
2021/12/09 14:02:17;;;;;;;;;;;;;;;9.42;54.06;99313.16;4997268;28;6817;-74
2021/12/09 14:04:43;;;;;;;;;;;;;;;9.41;53.93;99313.97;4980142;28;6812;-75
2021/12/09 14:09:35;;;;;;;;;;;;;;;9.42;54.06;99320.81;4983584;28;6931;-75
2021/12/09 14:12:03;;;;;;;;;;;;;;;9.41;53.47;99319.09;4981447;28;6804;-75
2021/12/09 14:14:42;;;;;;;;;;;;;;;9.42;54.00;99320.81;4978516;28;6955;-75
2021/12/09 14:17:13;;;;;;;;;;;;;;;9.41;54.35;99321.63;4993954;28;6809;-75
2021/12/09 14:19:58;;;;;;;;;;;;;;;9.42;53.38;99320.81;4982211;28;7013;-75
2021/12/09 14:22:36;;;;;;;;;;;;;;;9.41;54.04;99313.97;4981469;28;6941;-75
2021/12/09 14:25:12;;;;;;;;;;;;;;;9.42;53.66;99320.81;4966021;28;6891;-75
2021/12/09 14:27:38;;;;;;;;;;;;;;;9.42;54.05;99321.72;4984033;28;7122;-75
2021/12/09 14:30:14;;;;;;;;;;;;;;;9.42;54.73;99320.81;4965760;28;6997;-75
2021/12/09 14:32:48;;;;;;;;;;;;;;;9.41;54.24;99324.19;4999242;28;7051;-74
2021/12/09 14:35:25;;;;;;;;;;;;;;;9.38;54.55;99329.22;4965790;28;6904;-74
2021/12/09 14:37:53;;;;;;;;;;;;;;;9.37;54.08;99330.03;4972387;28;6975;-74
2021/12/09 14:40:27;;;;;;;;;;;;;;;9.37;54.59;99332.59;4982905;28;6808;-74